Time;durP1;ratioP1;P1;durP2;ratioP2;P2;SDS_P1;SDS_P2;PMS_P1;PMS_P2;Temp;Humidity;BMP_temperature;BMP_pressure;BME280_temperature;BME280_humidity;BME280_pressure;Samples;Min_cycle;Max_cycle;Signal;HPM_P1;HPM_P2
2023/10/02 00:00:39;;;;;;;4.63;2.87;;;;;;;;;;5039914;28;20442;-66
2023/10/02 00:03:09;;;;;;;6.07;2.63;;;;;;;;;;5047246;28;20462;-65
2023/10/02 00:05:41;;;;;;;6.07;2.63;;;;;;;;;;5040331;28;20952;-65
2023/10/02 00:08:31;;;;;;;6.23;2.60;;;;;;;;;;5040222;28;20449;-65
2023/10/02 00:11:05;;;;;;;6.23;2.97;;;;;;;;;;5049028;28;20457;-65
2023/10/02 00:13:31;;;;;;;5.93;2.23;;;;;;;;;;5039305;28;20470;-65
2023/10/02 00:15:59;;;;;;;6.77;2.60;;;;;;;;;;5051965;28;21020;-65
2023/10/02 00:18:27;;;;;;;4.63;2.07;;;;;;;;;;5042854;28;20509;-65
2023/10/02 00:21:17;;;;;;;7.60;2.83;;;;;;;;;;5036911;28;20927;-65
2023/10/02 00:23:59;;;;;;;7.17;2.80;;;;;;;;;;5043384;28;20434;-65
2023/10/02 00:26:26;;;;;;;7.87;2.50;;;;;;;;;;5048783;28;21128;-65
2023/10/02 00:28:56;;;;;;;4.57;1.90;;;;;;;;;;5047011;28;20462;-65
2023/10/02 00:31:35;;;;;;;5.60;2.30;;;;;;;;;;5038537;28;20465;-65
2023/10/02 00:34:03;;;;;;;11.70;2.50;;;;;;;;;;5037200;28;20833;-65
2023/10/02 00:36:30;;;;;;;7.17;3.10;;;;;;;;;;5049166;28;20481;-66
2023/10/02 00:39:24;;;;;;;5.33;1.73;;;;;;;;;;5041879;28;20541;-65
2023/10/02 00:44:51;;;;;;;6.47;2.47;;;;;;;;;;5046103;28;20817;-65
2023/10/02 00:47:35;;;;;;;6.60;2.30;;;;;;;;;;5043765;28;20872;-66
2023/10/02 00:50:08;;;;;;;5.10;2.40;;;;;;;;;;5042003;28;20487;-65
2023/10/02 00:52:36;;;;;;;7.50;3.40;;;;;;;;;;5045027;28;20458;-65
2023/10/02 00:55:06;;;;;;;4.30;2.07;;;;;;;;;;5044164;28;20451;-65
2023/10/02 00:57:35;;;;;;;5.07;1.80;;;;;;;;;;5034483;28;20487;-65
2023/10/02 01:00:06;;;;;;;9.20;3.10;;;;;;;;;;5036127;28;20623;-65
2023/10/02 01:02:35;;;;;;;3.90;1.97;;;;;;;;;;5051858;28;20454;-65
2023/10/02 01:05:04;;;;;;;6.43;2.47;;;;;;;;;;5048943;28;20520;-65
2023/10/02 01:07:33;;;;;;;6.97;2.70;;;;;;;;;;5034526;28;20517;-65
2023/10/02 01:10:08;;;;;;;7.83;2.57;;;;;;;;;;5039633;28;21062;-65
2023/10/02 01:12:44;;;;;;;7.10;2.30;;;;;;;;;;5044566;28;20474;-65
2023/10/02 01:15:12;;;;;;;6.87;3.00;;;;;;;;;;5035222;28;20431;-65
2023/10/02 01:17:40;;;;;;;7.80;3.00;;;;;;;;;;5046388;28;20581;-65
2023/10/02 01:20:12;;;;;;;4.93;2.50;;;;;;;;;;5041677;28;20470;-64
2023/10/02 01:22:42;;;;;;;5.83;2.43;;;;;;;;;;5044032;28;20455;-65
2023/10/02 01:25:14;;;;;;;6.03;3.40;;;;;;;;;;5036777;28;20443;-65
2023/10/02 01:27:42;;;;;;;5.10;2.50;;;;;;;;;;5049644;28;20813;-65
2023/10/02 01:30:15;;;;;;;7.20;2.40;;;;;;;;;;5042139;28;20465;-65
2023/10/02 01:33:11;;;;;;;4.73;2.00;;;;;;;;;;5043124;28;20459;-65
2023/10/02 01:35:40;;;;;;;6.13;3.00;;;;;;;;;;5043659;28;20447;-65
2023/10/02 01:38:12;;;;;;;6.77;2.23;;;;;;;;;;5044389;28;20543;-65
2023/10/02 01:40:42;;;;;;;6.70;2.67;;;;;;;;;;5047009;28;20449;-65
2023/10/02 01:43:18;;;;;;;5.50;2.43;;;;;;;;;;5048100;28;20466;-65
2023/10/02 01:45:47;;;;;;;7.20;2.57;;;;;;;;;;5046396;28;20461;-65
2023/10/02 01:48:15;;;;;;;6.83;3.43;;;;;;;;;;5040231;28;20490;-65
2023/10/02 01:50:43;;;;;;;5.47;3.20;;;;;;;;;;5043663;28;20458;-65
2023/10/02 01:53:28;;;;;;;11.30;3.07;;;;;;;;;;5040886;28;20798;-66
2023/10/02 01:56:00;;;;;;;8.10;1.90;;;;;;;;;;5036009;28;20428;-65
2023/10/02 01:58:27;;;;;;;4.10;2.10;;;;;;;;;;5033034;28;20467;-65
2023/10/02 02:00:54;;;;;;;5.07;2.20;;;;;;;;;;5033752;28;20458;-65
2023/10/02 02:03:22;;;;;;;5.03;2.23;;;;;;;;;;5048602;28;20466;-65
2023/10/02 02:05:49;;;;;;;5.80;2.80;;;;;;;;;;5052473;28;20792;-65
2023/10/02 02:08:22;;;;;;;5.13;2.40;;;;;;;;;;5041400;28;20959;-65
2023/10/02 02:10:51;;;;;;;8.53;3.77;;;;;;;;;;5042146;28;20463;-64
2023/10/02 02:13:21;;;;;;;3.70;1.67;;;;;;;;;;5036743;28;20469;-65
2023/10/02 02:15:51;;;;;;;7.50;2.60;;;;;;;;;;5047943;28;20628;-65
2023/10/02 02:18:20;;;;;;;5.93;3.13;;;;;;;;;;5035652;28;20458;-65
2023/10/02 02:20:58;;;;;;;9.60;2.30;;;;;;;;;;5045252;28;20814;-65
2023/10/02 02:23:27;;;;;;;8.03;2.53;;;;;;;;;;5048822;28;20457;-64
2023/10/02 02:25:54;;;;;;;6.60;2.40;;;;;;;;;;5037069;28;20845;-66
2023/10/02 02:28:23;;;;;;;4.93;2.37;;;;;;;;;;5032640;28;20482;-65
2023/10/02 02:30:51;;;;;;;5.57;2.60;;;;;;;;;;5037391;28;20484;-65
2023/10/02 02:33:34;;;;;;;3.90;2.20;;;;;;;;;;5051174;28;20524;-65
2023/10/02 02:36:05;;;;;;;4.00;2.70;;;;;;;;;;5039229;28;20481;-66
2023/10/02 02:38:34;;;;;;;9.03;3.53;;;;;;;;;;5030589;28;20485;-65
2023/10/02 02:41:07;;;;;;;7.63;3.87;;;;;;;;;;5039362;28;20462;-65
2023/10/02 02:43:38;;;;;;;6.30;3.37;;;;;;;;;;5042149;28;20482;-64
2023/10/02 02:46:08;;;;;;;6.70;3.37;;;;;;;;;;5041094;28;20577;-65
2023/10/02 02:48:43;;;;;;;5.87;2.23;;;;;;;;;;5044718;28;20474;-65
2023/10/02 02:51:18;;;;;;;4.87;2.40;;;;;;;;;;5041726;28;20925;-65
2023/10/02 02:53:46;;;;;;;9.70;3.00;;;;;;;;;;5034596;28;20450;-64
2023/10/02 02:56:18;;;;;;;5.50;3.00;;;;;;;;;;5044161;28;20508;-65
2023/10/02 02:58:48;;;;;;;3.43;2.00;;;;;;;;;;5046058;28;20834;-65
2023/10/02 03:01:21;;;;;;;7.20;3.20;;;;;;;;;;5045156;28;20477;-65
2023/10/02 03:03:49;;;;;;;7.37;2.93;;;;;;;;;;5042313;28;20458;-65
2023/10/02 03:06:18;;;;;;;8.47;3.30;;;;;;;;;;5047537;28;20454;-66
2023/10/02 03:08:45;;;;;;;6.43;2.90;;;;;;;;;;5068463;22;20573;-65
2023/10/02 03:11:12;;;;;;;6.97;2.57;;;;;;;;;;5029787;28;20439;-65
2023/10/02 03:13:40;;;;;;;3.30;1.93;;;;;;;;;;5020762;28;20459;-65
2023/10/02 03:16:19;;;;;;;5.83;3.00;;;;;;;;;;5018700;28;20467;-65
2023/10/02 03:18:48;;;;;;;5.23;2.37;;;;;;;;;;5020094;28;20613;-65
2023/10/02 03:21:21;;;;;;;7.97;2.57;;;;;;;;;;5030547;28;20463;-65
2023/10/02 03:23:49;;;;;;;4.93;2.80;;;;;;;;;;5021468;28;20510;-65
2023/10/02 03:26:38;;;;;;;4.63;2.20;;;;;;;;;;5019619;28;20436;-65
2023/10/02 03:29:05;;;;;;;7.00;2.80;;;;;;;;;;5011855;28;20471;-65
2023/10/02 03:31:36;;;;;;;5.67;2.40;;;;;;;;;;5020594;28;20997;-65
2023/10/02 03:34:24;;;;;;;6.53;2.67;;;;;;;;;;5024284;28;20470;-65
2023/10/02 03:36:52;;;;;;;7.63;3.60;;;;;;;;;;5024286;28;20479;-66
2023/10/02 03:39:52;;;;;;;7.60;3.87;;;;;;;;;;5027233;28;20867;-65
2023/10/02 03:42:13;;;;;;;7.50;3.50;;;;;;;;;;5019504;28;20440;-65
2023/10/02 03:44:41;;;;;;;6.63;3.10;;;;;;;;;;5020801;28;20463;-65
2023/10/02 03:47:12;;;;;;;6.33;2.70;;;;;;;;;;5016541;28;20455;-65
2023/10/02 03:49:40;;;;;;;5.10;2.57;;;;;;;;;;5030391;28;20478;-65
2023/10/02 03:52:07;;;;;;;5.73;3.27;;;;;;;;;;5017795;28;20448;-65
2023/10/02 03:54:34;;;;;;;6.13;2.40;;;;;;;;;;5021816;28;20534;-65
2023/10/02 03:57:02;;;;;;;8.47;3.00;;;;;;;;;;5016824;28;20479;-65
2023/10/02 03:59:32;;;;;;;3.37;1.90;;;;;;;;;;5020771;28;20515;-65
2023/10/02 04:02:24;;;;;;;5.90;3.30;;;;;;;;;;5025590;28;20443;-65
2023/10/02 04:04:49;;;;;;;6.00;2.37;;;;;;;;;;5029881;28;20971;-65
2023/10/02 04:07:17;;;;;;;6.20;2.97;;;;;;;;;;5015592;28;20810;-65
2023/10/02 04:09:49;;;;;;;13.30;3.33;;;;;;;;;;5027819;28;20510;-65
2023/10/02 04:12:17;;;;;;;9.23;3.50;;;;;;;;;;5026018;28;20435;-66
2023/10/02 04:14:46;;;;;;;4.30;3.03;;;;;;;;;;5024085;28;20483;-65
2023/10/02 04:17:14;;;;;;;7.70;3.27;;;;;;;;;;5027120;28;20483;-65
2023/10/02 04:19:47;;;;;;;6.27;2.63;;;;;;;;;;5021519;28;20474;-65
2023/10/02 04:22:22;;;;;;;6.47;2.80;;;;;;;;;;5022742;28;20938;-65
2023/10/02 04:24:54;;;;;;;5.90;2.83;;;;;;;;;;5024884;28;20449;-65
2023/10/02 04:27:27;;;;;;;6.43;2.40;;;;;;;;;;5019471;28;20937;-65
2023/10/02 04:32:42;;;;;;;8.80;4.50;;;;;;;;;;5029366;28;20492;-65
2023/10/02 04:35:44;;;;;;;10.97;3.57;;;;;;;;;;5024439;28;20468;-65
2023/10/02 04:37:59;;;;;;;6.70;2.77;;;;;;;;;;5023446;28;20495;-65
2023/10/02 04:40:37;;;;;;;5.43;3.17;;;;;;;;;;5030452;28;20459;-65
2023/10/02 04:43:19;;;;;;;6.47;3.10;;;;;;;;;;5020295;28;20919;-64
2023/10/02 04:45:46;;;;;;;4.93;2.70;;;;;;;;;;5031523;28;20455;-65
2023/10/02 04:48:13;;;;;;;5.67;2.80;;;;;;;;;;5019047;28;20456;-65
2023/10/02 04:50:46;;;;;;;6.33;2.50;;;;;;;;;;5033242;28;20455;-65
2023/10/02 04:53:22;;;;;;;5.97;2.20;;;;;;;;;;5024459;28;20510;-65
2023/10/02 04:55:57;;;;;;;5.93;2.70;;;;;;;;;;5024919;28;20536;-65
2023/10/02 04:58:27;;;;;;;7.77;2.50;;;;;;;;;;5018331;28;20511;-65
2023/10/02 05:03:49;;;;;;;6.10;3.37;;;;;;;;;;5027514;28;20439;-65
2023/10/02 05:06:16;;;;;;;6.87;3.30;;;;;;;;;;5029844;28;20799;-65
2023/10/02 05:11:26;;;;;;;6.37;3.40;;;;;;;;;;5027902;28;20444;-65
2023/10/02 05:13:59;;;;;;;4.90;3.10;;;;;;;;;;5017930;28;20917;-65
2023/10/02 05:16:32;;;;;;;9.13;2.50;;;;;;;;;;5022718;28;20503;-66
2023/10/02 05:18:59;;;;;;;7.43;2.47;;;;;;;;;;5030292;28;20483;-65
2023/10/02 05:21:38;;;;;;;5.83;2.73;;;;;;;;;;5025476;28;20502;-67
2023/10/02 05:24:06;;;;;;;10.00;2.90;;;;;;;;;;5015807;28;20459;-66
2023/10/02 05:26:36;;;;;;;7.93;3.83;;;;;;;;;;5020082;28;20444;-66
2023/10/02 05:29:05;;;;;;;9.53;2.70;;;;;;;;;;5013794;28;20503;-65
2023/10/02 05:31:35;;;;;;;7.33;3.90;;;;;;;;;;5024485;28;20452;-66
2023/10/02 05:34:07;;;;;;;5.47;2.70;;;;;;;;;;5028473;28;20459;-66
2023/10/02 05:36:35;;;;;;;6.33;2.43;;;;;;;;;;5029735;28;20436;-66
2023/10/02 05:39:28;;;;;;;5.93;2.60;;;;;;;;;;5019850;28;20490;-66
2023/10/02 05:42:05;;;;;;;4.47;2.40;;;;;;;;;;5023556;28;20956;-66
2023/10/02 05:44:33;;;;;;;11.07;3.40;;;;;;;;;;5032462;28;20528;-66
2023/10/02 05:47:06;;;;;;;5.33;2.47;;;;;;;;;;5030153;28;20794;-66
2023/10/02 05:49:33;;;;;;;6.60;2.77;;;;;;;;;;5021749;28;20516;-66
2023/10/02 05:52:02;;;;;;;7.57;2.93;;;;;;;;;;5032975;28;20466;-66
2023/10/02 05:54:35;;;;;;;7.40;2.40;;;;;;;;;;5022519;28;20460;-65
2023/10/02 05:57:12;;;;;;;9.80;2.60;;;;;;;;;;5021728;28;20498;-66
2023/10/02 05:59:45;;;;;;;10.37;3.57;;;;;;;;;;5024828;28;20514;-66
2023/10/02 06:02:12;;;;;;;8.40;2.97;;;;;;;;;;5018438;28;20479;-64
2023/10/02 06:04:43;;;;;;;4.57;2.90;;;;;;;;;;5030622;28;20534;-64
2023/10/02 06:07:11;;;;;;;5.40;2.90;;;;;;;;;;5013373;28;20429;-65
2023/10/02 06:09:44;;;;;;;9.40;3.60;;;;;;;;;;5026982;28;20518;-64
2023/10/02 06:12:13;;;;;;;6.40;2.20;;;;;;;;;;5023443;28;20467;-65
2023/10/02 06:14:42;;;;;;;11.13;3.43;;;;;;;;;;5017890;28;20458;-65
2023/10/02 06:17:11;;;;;;;5.70;2.50;;;;;;;;;;5025676;28;20512;-65
2023/10/02 06:19:43;;;;;;;6.80;3.60;;;;;;;;;;5025863;28;20899;-64
2023/10/02 06:22:13;;;;;;;9.20;3.10;;;;;;;;;;5027533;28;20513;-65
2023/10/02 06:24:40;;;;;;;8.33;4.23;;;;;;;;;;5024831;28;20449;-65
2023/10/02 06:27:13;;;;;;;9.60;3.70;;;;;;;;;;5025441;28;20459;-64
2023/10/02 06:29:44;;;;;;;8.33;4.10;;;;;;;;;;5020551;28;20460;-65
2023/10/02 06:32:16;;;;;;;4.80;3.13;;;;;;;;;;5022388;28;20436;-65
2023/10/02 06:34:44;;;;;;;7.07;3.30;;;;;;;;;;5031446;28;20451;-65
2023/10/02 06:37:12;;;;;;;6.57;2.70;;;;;;;;;;5028487;28;20459;-65
2023/10/02 06:39:40;;;;;;;13.17;3.77;;;;;;;;;;5012894;28;20467;-65
2023/10/02 06:42:08;;;;;;;9.83;3.70;;;;;;;;;;5027928;28;20476;-65
2023/10/02 06:44:41;;;;;;;5.10;3.07;;;;;;;;;;5026120;28;20889;-64
2023/10/02 06:47:13;;;;;;;7.40;2.87;;;;;;;;;;5016494;28;20443;-64
2023/10/02 06:49:40;;;;;;;8.10;3.50;;;;;;;;;;5030891;28;20485;-65
2023/10/02 06:52:16;;;;;;;5.00;2.70;;;;;;;;;;5027579;28;20451;-65
2023/10/02 06:54:44;;;;;;;6.30;3.60;;;;;;;;;;5015431;28;20753;-64
2023/10/02 06:57:13;;;;;;;4.90;2.57;;;;;;;;;;5022362;28;20930;-65
2023/10/02 06:59:41;;;;;;;8.97;4.20;;;;;;;;;;5012805;28;20824;-65
2023/10/02 07:02:12;;;;;;;9.07;3.70;;;;;;;;;;5026557;28;20455;-65
2023/10/02 07:04:41;;;;;;;8.00;3.43;;;;;;;;;;5025340;28;20490;-65
2023/10/02 07:07:10;;;;;;;7.03;2.73;;;;;;;;;;5026680;28;20530;-65
2023/10/02 07:09:37;;;;;;;8.93;3.97;;;;;;;;;;5029317;28;20471;-64
2023/10/02 07:12:13;;;;;;;7.10;3.30;;;;;;;;;;5023225;28;20463;-65
2023/10/02 07:14:41;;;;;;;10.43;4.40;;;;;;;;;;5025751;28;20807;-64
2023/10/02 07:17:17;;;;;;;9.40;3.67;;;;;;;;;;5022858;28;20833;-65
2023/10/02 07:19:49;;;;;;;9.10;3.17;;;;;;;;;;5020401;28;20483;-65
2023/10/02 07:22:22;;;;;;;4.90;3.37;;;;;;;;;;5031225;28;20455;-64
2023/10/02 07:24:49;;;;;;;8.67;3.90;;;;;;;;;;5021104;28;20967;-66
2023/10/02 07:27:25;;;;;;;8.07;4.30;;;;;;;;;;5028546;28;20512;-64
2023/10/02 07:29:56;;;;;;;9.10;3.87;;;;;;;;;;5030172;28;20483;-64
2023/10/02 07:32:25;;;;;;;7.70;3.77;;;;;;;;;;5024956;28;20832;-64
2023/10/02 07:34:54;;;;;;;11.50;3.97;;;;;;;;;;5030323;28;20455;-65
2023/10/02 07:37:22;;;;;;;6.90;3.50;;;;;;;;;;5032840;28;20440;-65
2023/10/02 07:40:00;;;;;;;10.00;4.40;;;;;;;;;;5029040;28;21034;-63
2023/10/02 07:42:29;;;;;;;6.63;3.40;;;;;;;;;;5035827;28;20442;-64
2023/10/02 07:44:56;;;;;;;9.70;4.30;;;;;;;;;;5026374;28;20475;-64
2023/10/02 07:47:23;;;;;;;6.63;3.60;;;;;;;;;;5023117;28;20817;-64
2023/10/02 07:49:54;;;;;;;9.07;3.37;;;;;;;;;;5036381;28;20482;-64
2023/10/02 07:55:02;;;;;;;8.73;4.57;;;;;;;;;;5417141;22;20563;-64
2023/10/02 07:57:32;;;;;;;9.33;4.73;;;;;;;;;;5053154;28;20453;-65
2023/10/02 08:00:00;;;;;;;7.27;3.90;;;;;;;;;;5042563;28;20941;-65
2023/10/02 08:02:33;;;;;;;11.10;4.13;;;;;;;;;;5049085;28;20462;-64
2023/10/02 08:05:04;;;;;;;9.50;4.30;;;;;;;;;;5046307;28;21023;-64
2023/10/02 08:07:33;;;;;;;11.50;3.77;;;;;;;;;;5038824;28;20891;-63
2023/10/02 08:10:05;;;;;;;9.83;5.47;;;;;;;;;;5045761;28;20458;-64
2023/10/02 08:12:34;;;;;;;10.40;4.73;;;;;;;;;;5038205;28;20439;-63
2023/10/02 08:15:25;;;;;;;8.43;3.53;;;;;;;;;;5038223;28;20521;-63
2023/10/02 08:18:04;;;;;;;9.67;4.23;;;;;;;;;;5038804;28;20543;-64
2023/10/02 08:20:37;;;;;;;7.60;3.93;;;;;;;;;;5042119;28;20455;-64
2023/10/02 08:23:10;;;;;;;11.00;4.60;;;;;;;;;;5037648;28;20450;-64
2023/10/02 08:25:38;;;;;;;8.13;3.47;;;;;;;;;;5038930;28;20474;-64
2023/10/02 08:28:07;;;;;;;6.63;3.60;;;;;;;;;;5035766;28;21155;-64
2023/10/02 08:30:36;;;;;;;9.57;4.47;;;;;;;;;;5033868;28;20549;-64
2023/10/02 08:33:08;;;;;;;6.90;4.77;;;;;;;;;;5033784;28;20539;-63
2023/10/02 08:35:36;;;;;;;9.83;4.47;;;;;;;;;;5038238;28;20479;-63
2023/10/02 08:38:07;;;;;;;9.10;4.20;;;;;;;;;;5032162;28;20894;-63
2023/10/02 08:40:34;;;;;;;12.83;4.53;;;;;;;;;;5038891;28;20545;-63
2023/10/02 08:43:05;;;;;;;13.93;5.30;;;;;;;;;;5030124;28;20455;-63
2023/10/02 08:45:33;;;;;;;8.07;4.00;;;;;;;;;;5031921;28;20480;-63
2023/10/02 08:48:07;;;;;;;9.90;4.67;;;;;;;;;;5034025;28;20455;-63
2023/10/02 08:50:37;;;;;;;11.47;4.23;;;;;;;;;;5035462;28;20459;-63
2023/10/02 08:53:09;;;;;;;9.50;4.47;;;;;;;;;;5035691;28;20454;-64
2023/10/02 08:55:41;;;;;;;8.50;4.23;;;;;;;;;;5042378;28;20491;-64
2023/10/02 08:58:19;;;;;;;9.67;5.20;;;;;;;;;;5032733;28;20470;-64
2023/10/02 09:01:17;;;;;;;11.17;4.40;;;;;;;;;;5042218;28;20455;-64
2023/10/02 09:03:48;;;;;;;10.67;4.30;;;;;;;;;;5038399;28;20488;-64
2023/10/02 09:06:28;;;;;;;14.60;3.83;;;;;;;;;;5040844;28;20455;-64
2023/10/02 09:09:16;;;;;;;6.40;4.20;;;;;;;;;;5034797;28;20482;-64
2023/10/02 09:11:44;;;;;;;8.70;3.90;;;;;;;;;;5034341;28;20892;-63
2023/10/02 09:14:24;;;;;;;7.03;3.30;;;;;;;;;;5043378;28;21015;-63
2023/10/02 09:17:12;;;;;;;8.03;4.07;;;;;;;;;;5034068;28;20455;-64
2023/10/02 09:19:39;;;;;;;12.60;4.87;;;;;;;;;;5033138;28;20487;-64
2023/10/02 09:22:11;;;;;;;9.47;5.40;;;;;;;;;;5032284;28;20455;-64
2023/10/02 09:24:38;;;;;;;9.67;4.33;;;;;;;;;;5045200;28;21021;-64
2023/10/02 09:30:15;;;;;;;7.50;4.03;;;;;;;;;;5033548;28;20423;-64
2023/10/02 09:32:47;;;;;;;5.97;3.97;;;;;;;;;;5042088;28;20855;-64
2023/10/02 09:35:29;;;;;;;6.57;3.50;;;;;;;;;;5033256;28;21167;-63
2023/10/02 09:37:58;;;;;;;10.87;4.83;;;;;;;;;;5032600;28;20446;-64
2023/10/02 09:40:29;;;;;;;10.00;3.93;;;;;;;;;;5033595;28;20466;-64
2023/10/02 09:43:03;;;;;;;11.20;4.80;;;;;;;;;;5040839;28;20574;-64
2023/10/02 09:45:37;;;;;;;11.10;3.90;;;;;;;;;;5033707;28;20990;-64
2023/10/02 09:48:32;;;;;;;10.80;5.37;;;;;;;;;;5032186;28;20466;-64
2023/10/02 09:50:56;;;;;;;9.60;4.07;;;;;;;;;;5031674;28;20546;-64
2023/10/02 09:53:25;;;;;;;8.60;4.60;;;;;;;;;;5044840;28;20454;-63
2023/10/02 09:56:07;;;;;;;7.07;3.77;;;;;;;;;;5033260;28;20455;-64
2023/10/02 09:58:37;;;;;;;8.53;4.47;;;;;;;;;;5033298;28;20475;-63
2023/10/02 10:01:37;;;;;;;10.07;5.07;;;;;;;;;;5033425;28;21067;-64
2023/10/02 10:07:09;;;;;;;10.23;4.27;;;;;;;;;;5032797;28;20513;-64
2023/10/02 10:09:50;;;;;;;8.50;4.67;;;;;;;;;;5022523;28;20453;-64
2023/10/02 10:12:50;;;;;;;10.30;4.93;;;;;;;;;;5034556;28;20534;-64
2023/10/02 10:15:23;;;;;;;10.07;4.47;;;;;;;;;;5032568;28;20473;-64
2023/10/02 10:17:56;;;;;;;9.37;4.20;;;;;;;;;;5032100;28;20494;-64
2023/10/02 10:20:23;;;;;;;8.63;3.93;;;;;;;;;;5031949;28;20483;-64
2023/10/02 10:22:55;;;;;;;10.87;5.67;;;;;;;;;;5032907;28;20501;-64
2023/10/02 10:25:41;;;;;;;9.67;4.10;;;;;;;;;;5032550;28;20546;-64
2023/10/02 10:28:09;;;;;;;10.10;4.80;;;;;;;;;;5027076;28;20513;-64
2023/10/02 10:30:43;;;;;;;7.47;4.23;;;;;;;;;;5039113;28;20457;-64
2023/10/02 10:33:33;;;;;;;11.73;5.30;;;;;;;;;;5044396;28;20853;-64
2023/10/02 10:36:08;;;;;;;6.93;4.13;;;;;;;;;;5032989;28;20435;-64
2023/10/02 10:38:41;;;;;;;8.67;4.50;;;;;;;;;;5024470;28;20477;-64
2023/10/02 10:41:09;;;;;;;7.27;4.03;;;;;;;;;;5040587;28;20549;-64
2023/10/02 10:43:55;;;;;;;10.57;5.70;;;;;;;;;;5031708;28;20494;-64
2023/10/02 10:46:22;;;;;;;9.53;4.20;;;;;;;;;;5032570;28;20527;-65
2023/10/02 10:48:59;;;;;;;10.00;4.30;;;;;;;;;;5033635;28;20451;-64
2023/10/02 10:51:33;;;;;;;11.60;5.53;;;;;;;;;;5030755;28;20482;-64
2023/10/02 10:54:12;;;;;;;11.07;4.80;;;;;;;;;;5032076;28;20846;-64
2023/10/02 10:56:43;;;;;;;8.93;4.33;;;;;;;;;;5032440;28;20579;-64
2023/10/02 10:59:12;;;;;;;15.00;5.47;;;;;;;;;;5031020;28;20475;-64
2023/10/02 11:01:39;;;;;;;8.53;3.90;;;;;;;;;;5036657;28;20459;-65
2023/10/02 11:04:06;;;;;;;11.83;5.03;;;;;;;;;;5040775;28;20489;-65
2023/10/02 11:06:41;;;;;;;12.57;5.07;;;;;;;;;;5031924;28;20450;-65
2023/10/02 11:09:12;;;;;;;9.50;4.77;;;;;;;;;;5032247;28;20469;-65
2023/10/02 11:11:49;;;;;;;10.70;4.50;;;;;;;;;;5031581;28;20491;-65
2023/10/02 11:14:20;;;;;;;11.23;4.90;;;;;;;;;;5036118;28;20484;-65
2023/10/02 11:16:51;;;;;;;13.70;5.57;;;;;;;;;;5031694;28;20493;-65
2023/10/02 11:19:25;;;;;;;9.03;4.70;;;;;;;;;;5034082;28;20470;-64
2023/10/02 11:22:03;;;;;;;11.30;4.90;;;;;;;;;;5028072;28;20504;-64
2023/10/02 11:24:33;;;;;;;10.37;5.23;;;;;;;;;;5041552;28;20895;-65
2023/10/02 11:27:07;;;;;;;9.83;4.90;;;;;;;;;;5031924;28;20447;-64
2023/10/02 11:29:40;;;;;;;12.30;4.83;;;;;;;;;;5024660;28;20467;-64
2023/10/02 11:32:21;;;;;;;14.33;5.47;;;;;;;;;;5029770;28;20518;-65
2023/10/02 11:34:49;;;;;;;11.13;5.53;;;;;;;;;;5032075;28;20470;-65
2023/10/02 11:37:18;;;;;;;11.73;5.10;;;;;;;;;;5031418;28;20435;-64
2023/10/02 11:39:50;;;;;;;11.83;4.50;;;;;;;;;;5031641;28;20471;-65
2023/10/02 11:42:18;;;;;;;15.50;4.83;;;;;;;;;;5033517;28;20570;-65
2023/10/02 11:44:45;;;;;;;10.40;4.87;;;;;;;;;;5039788;28;20471;-65
2023/10/02 11:47:13;;;;;;;13.37;6.10;;;;;;;;;;5030796;28;20545;-65
2023/10/02 11:49:40;;;;;;;11.20;5.03;;;;;;;;;;5042899;28;20922;-64
2023/10/02 11:52:08;;;;;;;13.77;4.83;;;;;;;;;;5028543;28;20521;-64
2023/10/02 11:54:39;;;;;;;12.67;5.40;;;;;;;;;;5031522;28;20478;-65
2023/10/02 11:57:09;;;;;;;10.80;4.37;;;;;;;;;;5030569;28;20937;-65
2023/10/02 11:59:37;;;;;;;13.73;5.77;;;;;;;;;;5037212;28;20472;-64
2023/10/02 12:02:04;;;;;;;14.03;4.90;;;;;;;;;;5036527;28;20496;-64
2023/10/02 12:04:33;;;;;;;13.13;4.97;;;;;;;;;;5036895;28;21058;-64
2023/10/02 12:07:01;;;;;;;10.97;5.20;;;;;;;;;;5031273;28;20470;-65
2023/10/02 12:09:28;;;;;;;12.17;6.47;;;;;;;;;;5031764;28;20455;-65
2023/10/02 12:11:57;;;;;;;11.77;5.50;;;;;;;;;;5033503;28;20461;-65
2023/10/02 12:14:25;;;;;;;12.50;5.47;;;;;;;;;;5034339;28;20459;-65
2023/10/02 12:16:54;;;;;;;10.23;5.03;;;;;;;;;;5026913;28;20458;-65
2023/10/02 12:19:21;;;;;;;11.17;5.43;;;;;;;;;;5033895;28;20474;-65
2023/10/02 12:21:49;;;;;;;13.57;6.70;;;;;;;;;;5034973;28;20446;-66
2023/10/02 12:24:16;;;;;;;14.07;5.80;;;;;;;;;;5035222;28;20497;-66
2023/10/02 12:26:43;;;;;;;12.23;5.97;;;;;;;;;;5034343;28;20475;-66
2023/10/02 12:29:12;;;;;;;10.17;5.13;;;;;;;;;;5035122;28;20435;-65
2023/10/02 12:31:40;;;;;;;13.73;6.73;;;;;;;;;;5033613;28;20447;-65
2023/10/02 12:34:07;;;;;;;8.60;4.47;;;;;;;;;;5038647;28;20474;-65
2023/10/02 12:36:34;;;;;;;13.70;5.70;;;;;;;;;;5034054;28;20449;-65
2023/10/02 12:39:03;;;;;;;14.63;6.53;;;;;;;;;;5046262;28;20458;-65
2023/10/02 12:41:32;;;;;;;18.80;5.77;;;;;;;;;;5036400;28;20529;-65
2023/10/02 12:43:59;;;;;;;11.90;7.50;;;;;;;;;;5034746;28;20930;-65
2023/10/02 12:46:27;;;;;;;16.60;6.40;;;;;;;;;;5033559;28;20493;-65
2023/10/02 12:48:57;;;;;;;10.47;5.97;;;;;;;;;;5045776;28;20450;-66
2023/10/02 12:51:25;;;;;;;14.80;6.70;;;;;;;;;;5031800;28;20470;-65
2023/10/02 12:53:52;;;;;;;18.60;7.37;;;;;;;;;;5034386;28;20454;-65
2023/10/02 12:56:20;;;;;;;12.83;5.83;;;;;;;;;;5034469;28;20435;-66
2023/10/02 12:58:49;;;;;;;13.00;6.57;;;;;;;;;;5033865;28;20482;-65
2023/10/02 13:01:16;;;;;;;13.63;5.87;;;;;;;;;;5038770;28;20488;-65
2023/10/02 13:03:45;;;;;;;14.20;6.03;;;;;;;;;;5041756;28;20505;-64
2023/10/02 13:06:13;;;;;;;12.43;7.23;;;;;;;;;;5034338;28;20465;-65
2023/10/02 13:08:41;;;;;;;14.90;6.70;;;;;;;;;;5034434;28;20446;-64
2023/10/02 13:11:12;;;;;;;11.80;5.93;;;;;;;;;;5038137;28;20946;-64
2023/10/02 13:13:39;;;;;;;15.20;6.37;;;;;;;;;;5043943;28;20484;-64
2023/10/02 13:16:06;;;;;;;13.60;7.07;;;;;;;;;;5035717;28;20615;-64
2023/10/02 13:18:33;;;;;;;15.90;7.03;;;;;;;;;;5033663;28;20450;-64
2023/10/02 13:21:02;;;;;;;13.87;6.80;;;;;;;;;;5034233;28;20478;-65
2023/10/02 13:23:29;;;;;;;14.20;7.00;;;;;;;;;;5032547;28;20952;-64
2023/10/02 13:25:56;;;;;;;16.37;6.57;;;;;;;;;;5023890;28;20454;-64
2023/10/02 13:28:24;;;;;;;16.00;7.87;;;;;;;;;;5034171;28;20454;-65
2023/10/02 13:30:52;;;;;;;16.50;6.60;;;;;;;;;;5037332;28;20460;-64
2023/10/02 13:33:20;;;;;;;13.90;6.97;;;;;;;;;;5038536;28;20963;-65
2023/10/02 13:35:54;;;;;;;18.30;8.10;;;;;;;;;;5033371;28;20501;-64
2023/10/02 13:38:22;;;;;;;17.77;7.63;;;;;;;;;;5033431;28;20439;-65
2023/10/02 13:40:49;;;;;;;13.30;5.77;;;;;;;;;;5033923;28;20528;-65
2023/10/02 13:43:17;;;;;;;14.67;7.60;;;;;;;;;;5033184;28;20445;-65
2023/10/02 13:45:46;;;;;;;18.90;8.07;;;;;;;;;;5033961;28;20538;-65
2023/10/02 13:48:16;;;;;;;17.63;6.90;;;;;;;;;;5034138;28;20872;-65
2023/10/02 13:50:43;;;;;;;20.43;6.53;;;;;;;;;;5036534;28;20854;-65
2023/10/02 13:53:10;;;;;;;12.80;6.87;;;;;;;;;;5032883;28;20215;-65
2023/10/02 13:55:38;;;;;;;15.00;7.20;;;;;;;;;;5033638;28;20234;-65
2023/10/02 13:58:06;;;;;;;12.93;7.13;;;;;;;;;;5033366;28;20458;-65
2023/10/02 14:00:38;;;;;;;15.80;7.50;;;;;;;;;;5021783;28;20485;-65
2023/10/02 14:03:09;;;;;;;14.30;6.97;;;;;;;;;;5033920;28;20629;-65
2023/10/02 14:05:37;;;;;;;16.73;7.57;;;;;;;;;;5029573;28;20223;-65
2023/10/02 14:08:05;;;;;;;15.33;6.90;;;;;;;;;;5030785;28;20214;-65
2023/10/02 14:10:33;;;;;;;16.07;7.97;;;;;;;;;;5033088;28;20450;-65
2023/10/02 14:13:03;;;;;;;15.60;6.63;;;;;;;;;;5032535;28;20282;-65
2023/10/02 14:15:34;;;;;;;13.50;7.03;;;;;;;;;;5032430;28;20478;-65
2023/10/02 14:18:02;;;;;;;19.60;7.57;;;;;;;;;;5035132;28;20995;-65
2023/10/02 14:20:29;;;;;;;14.97;6.80;;;;;;;;;;5032838;28;20682;-65
2023/10/02 14:22:56;;;;;;;14.63;7.80;;;;;;;;;;5039819;28;20200;-65
2023/10/02 14:25:24;;;;;;;16.07;7.33;;;;;;;;;;5033267;28;20273;-65
2023/10/02 14:27:52;;;;;;;14.77;7.27;;;;;;;;;;5032979;28;20196;-65
2023/10/02 14:30:22;;;;;;;15.90;8.60;;;;;;;;;;5033046;28;20199;-66
2023/10/02 14:32:49;;;;;;;18.20;7.60;;;;;;;;;;5043437;28;20200;-65
2023/10/02 14:35:17;;;;;;;16.10;6.77;;;;;;;;;;5032174;28;20239;-65
2023/10/02 14:37:48;;;;;;;17.60;8.20;;;;;;;;;;5032481;28;20204;-65
2023/10/02 14:40:19;;;;;;;14.87;8.00;;;;;;;;;;5032495;28;20644;-66
2023/10/02 14:42:47;;;;;;;16.50;8.53;;;;;;;;;;5041026;28;20627;-65
2023/10/02 14:45:15;;;;;;;18.53;8.17;;;;;;;;;;5032422;28;20227;-65
2023/10/02 14:47:43;;;;;;;20.20;7.97;;;;;;;;;;5031903;28;20211;-65
2023/10/02 14:50:12;;;;;;;14.80;8.70;;;;;;;;;;5031535;28;20222;-65
2023/10/02 14:52:40;;;;;;;20.27;8.48;;;;;;;;;;5033763;28;20642;-65
2023/10/02 14:55:08;;;;;;;19.88;7.75;;;;;;;;;;5032044;28;20227;-65
2023/10/02 14:57:37;;;;;;;20.02;8.95;;;;;;;;;;5032634;28;20558;-65
2023/10/02 15:00:09;;;;;;;15.88;7.28;;;;;;;;;;5032297;28;20223;-65
2023/10/02 15:02:36;;;;;;;20.10;7.90;;;;;;;;;;5043835;28;20195;-65
2023/10/02 15:05:05;;;;;;;16.48;7.07;;;;;;;;;;5034472;28;20884;-64
2023/10/02 15:07:33;;;;;;;16.77;7.00;;;;;;;;;;5031737;28;20199;-66
2023/10/02 15:10:00;;;;;;;19.30;9.02;;;;;;;;;;5031978;28;20514;-66
2023/10/02 15:12:30;;;;;;;18.77;8.98;;;;;;;;;;5032184;28;20254;-66
2023/10/02 15:14:57;;;;;;;22.25;8.73;;;;;;;;;;5044708;28;20226;-67
2023/10/02 15:17:26;;;;;;;18.52;9.43;;;;;;;;;;5040040;28;20191;-67
2023/10/02 15:19:53;;;;;;;22.05;9.15;;;;;;;;;;5033170;28;20204;-67
2023/10/02 15:22:21;;;;;;;16.75;8.73;;;;;;;;;;5036605;28;20253;-67